Horsforth, United Kingdom
Current Conditions -  °F | °C
As of 3:50 PM on Sunday 21 Dec 2014 (Local Time) from EGNM Reporting Station
Broken Clouds Broken Clouds  
Wind Chill: 41°   Ceiling: 1800
Heat Index: 48°   Visibility: 6mi
Dew Point: 46°   Wind: 22mph
Humidity: 93%   Direction: 230°SW
Pressure: 29.91"   Gusts: 36mph
Location:  53.84°N, 1.64°W
Report Text: EGNM 211550Z 23019G31KT 200V260 9999 SCT010 BKN018 09/08 Q1013
Loading
Personal Weather Stations






























Interactive Weather Map New forecast layout! Learn more

10-Day Weather Forecast

Advertisements
Track Severe Weather on mobile